Ben Bolt, TX

9:08 AM CDT on September 21, 2014 (GMT -0500)
Alice International | Change Station
CLOSE
Current Station
Airport
Location: Alice,
Elevation: 177 ft
Nearby Weather Stations

Elev 177 ft 27.74 °N, 98.03 °W | Updated 15 minutes ago

Overcast
Overcast
79 °F
Feels Like 79 °F
N
9
Wind Variable Wind from NNE

Today
High -- | Low -- °F
--% Chance of Precip.
Yesterday
High -- | Low -- °F
Precip. -- in
7:20 AM 7:29 PM
Waning Crescent, 7% visible
Pressure 29.99 in
Visibility 10.0 miles
Clouds Mostly Cloudy 7000 ft
Overcast 9000 ft
Dew Point 75 °F
Humidity 89%
Rainfall 0.12 in
Snow Depth Not available.
UV 0 out of 12
Pollen 9.70 out of 12
Air Quality Not available.
Flu Activity Not available.
METAR KALI 211353Z AUTO 02008KT 10SM BKN070 OVC090 26/24 A2999

More Conditions Fewer Conditions

Pressure 29.99 in
Visibility 10.0 miles
Clouds Mostly Cloudy 7000 ft
Overcast 9000 ft
Dew Point 75 °F
Humidity 89%
Rainfall 0.12 in
Snow Depth Not available.
UV 0 out of 12
Pollen 9.70 out of 12
Air Quality Not available.
Flu Activity Not available.
METAR KALI 211353Z AUTO 02008KT 10SM BKN070 OVC090 26/24 A2999

More Conditions Fewer Conditions

Nowcast | as of 7:14 am CDT on September 21, 2014

Through 930 am CDT...isolated to scattered showers will continue to affect portions of south Texas and the middle Texas coastal waters. An isolated thunderstorm is also possible. Moderate to heavy rainfall may occur with these showers...with rainfall amounts generally less than a quarter of an inch an hour. However...isolated higher amounts of 1 to one and a half inch are possible with the heavier showers.

×

10-Day Weather Forecast

Almanac

Astronomy

Sep. 21, 2014 Rise Set
Actual Time 7:20 AM CDT 7:29 PM CDT
Civil Twilight 6:56 AM CDT 7:53 PM CDT
Nautical Twilight 6:29 AM CDT 8:20 PM CDT
Astronomical Twilight 6:02 AM CDT 8:47 PM CDT
Moon 5:04 AM CDT 5:59 PM CDT
Length of Visible Light 12h 56m
Length of Day
12h 09m
Tomorrow will be 1m 38s shorter.
Waning Crescent, 7% of the Moon is Illuminated
Today
Waning Crescent
Sep 24
New
Oct 1
First Quarter
Oct 8
Full
Oct 15
Last Quarter

Today's Extremes

State Highs State Lows

Community

WunderPhotos

Upload Photos

1,755,147 photos uploaded!

Nearby

Snow Depth

Station Depth Elevation
No new snow has been reported.

Earthquake Activity

City Distance Mag. Time & Date
No recent earthquake activity has been reported nearby.
Minimum magnitude displayed is 2.5.

Coastal Water Temperatures

Place Temperature
No Stations Reporting

Nearby Weather Stations